createdAt,value
2023-04-15T00:02:16.547Z,87.44
2023-04-15T00:04:43.353Z,87.55
2023-04-15T00:07:10.345Z,87.60
2023-04-15T00:09:38.172Z,87.58
2023-04-15T00:12:05.788Z,87.86
2023-04-15T00:14:32.465Z,87.89
2023-04-15T00:16:59.453Z,87.97
2023-04-15T00:19:26.143Z,87.50
2023-04-15T00:21:52.946Z,87.53
2023-04-15T00:24:19.630Z,87.76
2023-04-15T00:26:46.417Z,87.58
2023-04-15T00:29:16.631Z,87.69
2023-04-15T00:31:43.629Z,87.63
2023-04-15T00:34:10.899Z,87.69
2023-04-15T00:36:37.827Z,87.50
2023-04-15T00:39:05.616Z,87.71
2023-04-15T00:41:34.206Z,87.76
2023-04-15T00:44:02.647Z,87.66
2023-04-15T00:46:31.202Z,87.58
2023-04-15T00:49:04.129Z,87.26
2023-04-15T00:51:33.679Z,87.24
2023-04-15T00:54:01.010Z,87.16
2023-04-15T00:56:29.581Z,87.18
2023-04-15T00:58:57.578Z,86.79
2023-04-15T01:01:25.716Z,86.92
2023-04-15T01:03:52.922Z,86.67
2023-04-15T01:06:19.966Z,86.62
2023-04-15T01:08:46.844Z,86.70
2023-04-15T01:11:14.140Z,86.59
2023-04-15T01:13:41.196Z,86.32
2023-04-15T01:16:08.981Z,86.19
2023-04-15T01:18:37.997Z,86.35
2023-04-15T01:21:06.116Z,86.32
2023-04-15T01:23:37.058Z,86.26
2023-04-15T01:26:03.930Z,86.07
2023-04-15T01:28:34.008Z,85.68
2023-04-15T01:31:14.072Z,85.69
2023-04-15T01:33:42.672Z,85.43
2023-04-15T01:36:11.032Z,85.32
2023-04-15T01:38:39.387Z,85.41
2023-04-15T01:41:08.257Z,85.28
2023-04-15T01:43:37.382Z,85.34
2023-04-15T01:46:04.040Z,85.31
2023-04-15T01:48:30.871Z,85.17
2023-04-15T01:51:02.506Z,85.21
2023-04-15T01:53:29.683Z,85.30
2023-04-15T01:55:56.426Z,85.20
2023-04-15T01:58:23.317Z,84.88
2023-04-15T02:00:50.010Z,85.00
2023-04-15T02:03:17.272Z,84.98
2023-04-15T02:05:44.219Z,84.82
2023-04-15T02:08:11.133Z,84.75
2023-04-15T02:10:39.077Z,84.66
2023-04-15T02:13:05.855Z,84.71
2023-04-15T02:15:33.727Z,84.62
2023-04-15T02:18:01.246Z,84.44
2023-04-15T02:20:28.163Z,84.00
2023-04-15T02:22:54.862Z,84.14
2023-04-15T02:25:21.770Z,84.07
2023-04-15T02:27:48.565Z,83.94
2023-04-15T02:30:15.459Z,83.70
2023-04-15T02:32:45.432Z,83.57
2023-04-15T02:35:12.702Z,83.66
2023-04-15T02:37:45.956Z,83.75
2023-04-15T02:40:13.570Z,83.38
2023-04-15T02:42:41.345Z,83.55
2023-04-15T02:45:08.814Z,83.45
2023-04-15T02:47:36.383Z,83.32
2023-04-15T02:50:04.837Z,83.13
2023-04-15T02:52:31.653Z,83.13
2023-04-15T02:55:00.942Z,83.22
2023-04-15T02:57:31.235Z,82.82
2023-04-15T02:59:57.895Z,83.08
2023-04-15T03:02:25.869Z,82.89
2023-04-15T03:04:56.968Z,82.78
2023-04-15T03:07:23.725Z,82.80
2023-04-15T03:09:50.415Z,82.61
2023-04-15T03:12:17.181Z,82.26
2023-04-15T03:14:44.926Z,82.20
2023-04-15T03:17:11.678Z,82.33
2023-04-15T03:19:38.397Z,82.41
2023-04-15T03:22:05.131Z,82.45
2023-04-15T03:24:31.854Z,82.44
2023-04-15T03:26:59.143Z,82.51
2023-04-15T03:29:26.180Z,82.30
2023-04-15T03:31:53.143Z,82.65
2023-04-15T03:34:20.542Z,82.91
2023-04-15T03:36:47.472Z,82.88
2023-04-15T03:39:14.171Z,82.76
2023-04-15T03:41:41.229Z,82.84
2023-04-15T03:44:07.982Z,83.12
2023-04-15T03:46:34.753Z,83.10
2023-04-15T03:49:02.711Z,83.21
2023-04-15T03:51:29.709Z,83.45
2023-04-15T03:53:56.406Z,83.51
2023-04-15T03:56:23.168Z,83.51
2023-04-15T03:58:49.885Z,83.47
2023-04-15T04:01:16.750Z,83.50
2023-04-15T04:03:43.724Z,83.51
2023-04-15T04:06:12.614Z,83.64
2023-04-15T04:08:39.420Z,83.64
2023-04-15T04:11:06.776Z,83.55
2023-04-15T04:13:33.572Z,83.58
2023-04-15T04:16:00.296Z,83.44
2023-04-15T04:18:27.147Z,83.45
2023-04-15T04:20:54.058Z,83.42
2023-04-15T04:23:20.877Z,83.43
2023-04-15T04:25:47.845Z,83.44
2023-04-15T04:28:14.523Z,83.50
2023-04-15T04:30:41.309Z,83.81
2023-04-15T04:33:08.036Z,83.78
2023-04-15T04:35:37.818Z,83.88
2023-04-15T04:38:05.120Z,83.90
2023-04-15T04:40:31.804Z,83.97
2023-04-15T04:42:58.575Z,83.82
2023-04-15T04:45:25.327Z,83.87
2023-04-15T04:47:52.135Z,84.10
2023-04-15T04:50:19.887Z,84.09
2023-04-15T04:52:46.902Z,84.13
2023-04-15T04:55:13.526Z,83.86
2023-04-15T04:57:40.208Z,83.86
2023-04-15T05:00:09.150Z,83.63
2023-04-15T05:02:36.412Z,83.61
2023-04-15T05:05:03.245Z,83.63
2023-04-15T05:07:29.956Z,83.66
2023-04-15T05:09:56.824Z,83.72
2023-04-15T05:12:23.556Z,83.74
2023-04-15T05:14:50.416Z,83.74
2023-04-15T05:17:17.090Z,83.77
2023-04-15T05:19:46.254Z,83.67
2023-04-15T05:22:32.116Z,83.71
2023-04-15T05:24:58.789Z,83.73
2023-04-15T05:27:25.890Z,83.65
2023-04-15T05:29:52.564Z,83.34
2023-04-15T05:32:19.404Z,83.56
2023-04-15T05:34:46.520Z,83.00
2023-04-15T05:37:16.891Z,83.11
2023-04-15T05:39:43.873Z,83.22
2023-04-15T05:42:10.831Z,82.96
2023-04-15T05:44:37.570Z,83.00
2023-04-15T05:47:05.384Z,83.11
2023-04-15T05:49:32.201Z,82.64
2023-04-15T05:51:58.907Z,82.27
2023-04-15T05:54:26.817Z,81.42
2023-04-15T05:56:54.037Z,81.08
2023-04-15T05:59:21.146Z,79.25
2023-04-15T06:01:48.243Z,76.54
2023-04-15T06:04:16.725Z,74.69
2023-04-15T06:06:43.930Z,72.41
2023-04-15T06:09:10.637Z,71.97
2023-04-15T06:11:38.373Z,70.73
2023-04-15T06:14:05.150Z,71.06
2023-04-15T06:16:31.849Z,71.02
2023-04-15T06:18:58.792Z,70.75
2023-04-15T06:21:27.158Z,69.95
2023-04-15T06:23:54.041Z,69.00
2023-04-15T06:26:21.087Z,68.55
2023-04-15T06:28:48.921Z,68.34
2023-04-15T06:31:16.213Z,68.51
2023-04-15T06:33:42.955Z,68.18
2023-04-15T06:36:09.635Z,67.99
2023-04-15T06:38:36.745Z,67.40
2023-04-15T06:41:04.643Z,67.93
2023-04-15T06:43:31.458Z,67.60
2023-04-15T06:45:58.393Z,67.81
2023-04-15T06:48:25.306Z,67.17
2023-04-15T06:50:52.228Z,67.47
2023-04-15T06:53:19.143Z,67.72
2023-04-15T06:55:46.141Z,67.61
2023-04-15T06:58:12.793Z,68.24
2023-04-15T07:00:40.533Z,68.44
2023-04-15T07:03:10.316Z,68.40
2023-04-15T07:05:37.187Z,68.51
2023-04-15T07:08:04.426Z,68.40
2023-04-15T07:10:31.401Z,68.27
2023-04-15T07:12:58.066Z,67.69
2023-04-15T07:15:25.388Z,67.61
2023-04-15T07:17:52.072Z,68.00
2023-04-15T07:20:18.913Z,68.17
2023-04-15T07:22:45.644Z,67.88
2023-04-15T07:25:12.736Z,67.17
2023-04-15T07:27:39.516Z,67.21
2023-04-15T07:30:07.046Z,66.67
2023-04-15T07:32:33.762Z,67.14
2023-04-15T07:35:00.498Z,67.67
2023-04-15T07:37:28.545Z,68.17
2023-04-15T07:39:55.693Z,69.10
2023-04-15T07:42:22.760Z,69.70
2023-04-15T07:44:49.518Z,70.45
2023-04-15T07:47:16.372Z,70.86
2023-04-15T07:49:43.677Z,70.72
2023-04-15T07:52:10.515Z,70.73
2023-04-15T07:54:37.304Z,70.75
2023-04-15T07:57:03.951Z,70.40
2023-04-15T07:59:33.662Z,69.85
2023-04-15T08:02:00.884Z,70.20
2023-04-15T08:04:27.737Z,69.01
2023-04-15T08:06:54.992Z,67.10
2023-04-15T08:09:22.715Z,66.15
2023-04-15T08:11:50.290Z,65.28
2023-04-15T08:14:17.296Z,64.61
2023-04-15T08:16:44.181Z,64.10
2023-04-15T08:19:10.899Z,63.59
2023-04-15T08:21:38.809Z,63.98
2023-04-15T08:24:06.452Z,63.82
2023-04-15T08:26:33.148Z,62.84
2023-04-15T08:29:00.030Z,62.90
2023-04-15T08:31:30.051Z,62.89
2023-04-15T08:33:57.879Z,62.61
2023-04-15T08:36:24.871Z,62.70
2023-04-15T08:38:51.483Z,62.37
2023-04-15T08:41:25.530Z,63.13
2023-04-15T08:44:03.734Z,63.23
2023-04-15T08:46:35.068Z,62.92
2023-04-15T08:49:04.900Z,62.71
2023-04-15T08:51:33.856Z,63.10
2023-04-15T08:54:01.802Z,63.06
2023-04-15T08:56:33.156Z,63.11
2023-04-15T08:59:00.824Z,63.55
2023-04-15T09:01:28.385Z,63.22
2023-04-15T09:03:57.309Z,62.91
2023-04-15T09:06:24.519Z,63.01
2023-04-15T09:08:52.361Z,63.59
2023-04-15T09:11:20.384Z,63.07
2023-04-15T09:13:47.271Z,63.21
2023-04-15T09:16:14.616Z,63.00
2023-04-15T09:18:41.423Z,62.89
2023-04-15T09:21:11.563Z,62.97
2023-04-15T09:23:40.697Z,62.65
2023-04-15T09:26:09.446Z,62.53
2023-04-15T09:28:43.317Z,62.51
2023-04-15T09:31:11.017Z,62.60
2023-04-15T09:33:55.048Z,62.58
2023-04-15T09:36:21.838Z,62.24
2023-04-15T09:38:59.341Z,61.58
2023-04-15T09:41:27.094Z,61.33
2023-04-15T09:43:53.866Z,61.21
2023-04-15T09:46:20.693Z,60.90
2023-04-15T09:48:47.756Z,60.99
2023-04-15T09:51:14.636Z,60.48
2023-04-15T09:53:41.697Z,59.42
2023-04-15T09:56:10.649Z,59.80
2023-04-15T09:58:39.021Z,60.24
2023-04-15T10:01:08.048Z,59.98
2023-04-15T10:03:37.080Z,59.74
2023-04-15T10:06:05.716Z,59.07
2023-04-15T10:08:35.106Z,57.79
2023-04-15T10:11:05.702Z,57.01
2023-04-15T10:13:37.556Z,57.37
2023-04-15T10:16:04.533Z,57.31
2023-04-15T10:18:34.782Z,57.17
2023-04-15T10:21:02.358Z,56.51
2023-04-15T10:23:29.591Z,54.98
2023-04-15T10:25:56.740Z,53.74
2023-04-15T10:28:23.473Z,53.12
2023-04-15T10:30:50.268Z,53.03
2023-04-15T10:33:20.719Z,53.46
2023-04-15T10:35:50.297Z,53.51
2023-04-15T10:38:37.590Z,53.23
2023-04-15T10:41:21.180Z,53.10
2023-04-15T10:44:02.612Z,53.03
2023-04-15T10:46:47.549Z,53.89
2023-04-15T10:49:25.567Z,52.30
2023-04-15T10:51:57.290Z,51.53
2023-04-15T10:54:26.723Z,50.20
2023-04-15T10:57:21.677Z,50.11
2023-04-15T11:00:11.715Z,50.64
2023-04-15T11:02:48.485Z,50.21
2023-04-15T11:05:16.486Z,50.96
2023-04-15T11:07:52.322Z,51.13
2023-04-15T11:10:20.904Z,49.50
2023-04-15T11:12:57.782Z,49.59
2023-04-15T11:15:34.614Z,49.85
2023-04-15T11:18:17.682Z,48.69
2023-04-15T11:20:46.769Z,48.67
2023-04-15T11:23:15.838Z,49.31
2023-04-15T11:25:44.035Z,48.71
2023-04-15T11:28:12.477Z,48.50
2023-04-15T11:30:40.399Z,48.16
2023-04-15T11:33:09.432Z,48.80
2023-04-15T11:35:36.922Z,48.73
2023-04-15T11:38:12.293Z,47.93
2023-04-15T11:40:40.508Z,47.75
2023-04-15T11:43:21.123Z,48.40
2023-04-15T11:45:59.433Z,48.93
2023-04-15T11:48:28.941Z,49.01
2023-04-15T11:51:00.934Z,49.14
2023-04-15T11:53:57.533Z,49.46
2023-04-15T11:56:26.807Z,49.66
2023-04-15T11:58:57.310Z,49.83
2023-04-15T12:01:36.628Z,50.31
2023-04-15T12:04:13.018Z,52.76
2023-04-15T12:06:39.877Z,53.86
2023-04-15T12:09:16.923Z,54.14
2023-04-15T12:11:57.857Z,54.80
2023-04-15T12:14:29.626Z,54.84
2023-04-15T12:17:05.526Z,54.65
2023-04-15T12:19:38.170Z,54.31
2023-04-15T12:22:07.211Z,54.47
2023-04-15T12:24:36.125Z,54.93
2023-04-15T12:27:11.489Z,55.01
2023-04-15T12:29:40.289Z,54.95
2023-04-15T12:32:09.470Z,55.42
2023-04-15T12:34:39.037Z,55.76
2023-04-15T12:37:09.680Z,56.27
2023-04-15T12:39:38.762Z,56.38
2023-04-15T12:42:06.333Z,56.67
2023-04-15T12:44:33.682Z,57.03
2023-04-15T12:47:00.717Z,57.28
2023-04-15T12:49:28.056Z,57.08
2023-04-15T12:51:56.955Z,57.98
2023-04-15T12:54:24.251Z,59.69
2023-04-15T12:56:52.531Z,61.88
2023-04-15T12:59:19.273Z,63.82
2023-04-15T13:01:47.637Z,64.89
2023-04-15T13:04:15.682Z,65.39
2023-04-15T13:06:42.959Z,65.79
2023-04-15T13:09:09.767Z,66.44
2023-04-15T13:11:36.861Z,67.05
2023-04-15T13:14:05.738Z,68.43
2023-04-15T13:16:34.420Z,69.33
2023-04-15T13:19:02.334Z,70.60
2023-04-15T13:21:29.534Z,71.22
2023-04-15T13:23:56.255Z,72.03
2023-04-15T13:26:23.192Z,72.51
2023-04-15T13:29:26.142Z,72.95
2023-04-15T13:31:52.975Z,73.06
2023-04-15T13:34:20.116Z,73.61
2023-04-15T13:36:52.371Z,74.10
2023-04-15T13:39:19.116Z,74.60
2023-04-15T13:41:46.313Z,75.63
2023-04-15T13:44:13.953Z,75.07
2023-04-15T13:46:42.786Z,75.58
2023-04-15T13:49:10.583Z,75.53
2023-04-15T13:51:40.727Z,75.64
2023-04-15T13:54:08.430Z,75.30
2023-04-15T13:56:35.644Z,74.73
2023-04-15T13:59:03.300Z,73.38
2023-04-15T14:01:30.511Z,72.09
2023-04-15T14:03:57.269Z,71.09
2023-04-15T14:06:25.122Z,68.88
2023-04-15T14:08:51.816Z,68.71
2023-04-15T14:11:18.836Z,68.09
2023-04-15T14:13:45.587Z,66.67
2023-04-15T14:16:12.324Z,66.65
2023-04-15T14:18:39.100Z,66.35
2023-04-15T14:21:06.872Z,64.18
2023-04-15T14:23:33.815Z,64.39
2023-04-15T14:26:00.545Z,63.34
2023-04-15T14:28:27.377Z,62.96
2023-04-15T14:30:54.253Z,62.18
2023-04-15T14:33:20.979Z,61.47
2023-04-15T14:35:48.283Z,61.42
2023-04-15T14:38:15.056Z,60.37
2023-04-15T14:40:41.914Z,60.78
2023-04-15T14:43:08.826Z,60.45
2023-04-15T14:45:36.493Z,60.37
2023-04-15T14:48:03.467Z,60.07
2023-04-15T14:50:30.245Z,60.65
2023-04-15T14:53:00.550Z,60.55
2023-04-15T14:55:27.148Z,59.95
2023-04-15T14:57:53.887Z,60.31
2023-04-15T15:00:20.569Z,60.51
2023-04-15T15:02:48.483Z,60.61
2023-04-15T15:05:16.430Z,60.67
2023-04-15T15:07:43.391Z,60.52
2023-04-15T15:10:10.194Z,59.61
2023-04-15T15:12:36.904Z,59.25
2023-04-15T15:15:09.158Z,59.13
2023-04-15T15:17:42.817Z,59.08
2023-04-15T15:20:09.985Z,58.30
2023-04-15T15:22:36.711Z,58.61
2023-04-15T15:25:03.441Z,58.83
2023-04-15T15:27:30.115Z,58.91
2023-04-15T15:29:56.790Z,57.42
2023-04-15T15:32:23.627Z,57.16
2023-04-15T15:35:11.292Z,57.12
2023-04-15T15:37:38.301Z,56.73
2023-04-15T15:40:05.276Z,57.28
2023-04-15T15:42:32.448Z,57.08
2023-04-15T15:45:00.923Z,57.54
2023-04-15T15:47:28.712Z,57.91
2023-04-15T15:49:55.474Z,58.06
2023-04-15T15:52:24.989Z,57.03
2023-04-15T15:54:51.674Z,57.08
2023-04-15T15:57:18.362Z,57.17
2023-04-15T15:59:45.061Z,56.38
2023-04-15T16:02:13.529Z,56.13
2023-04-15T16:04:40.760Z,56.37
2023-04-15T16:07:07.581Z,55.70
2023-04-15T16:09:34.728Z,54.82
2023-04-15T16:12:02.332Z,55.07
2023-04-15T16:14:29.021Z,55.24
2023-04-15T16:16:55.921Z,55.48
2023-04-15T16:19:22.805Z,55.10
2023-04-15T16:21:49.525Z,55.76
2023-04-15T16:24:16.216Z,56.53
2023-04-15T16:26:42.877Z,56.53
2023-04-15T16:29:09.644Z,56.84
2023-04-15T16:31:38.763Z,56.78
2023-04-15T16:34:06.357Z,57.06
2023-04-15T16:36:34.962Z,57.28
2023-04-15T16:39:02.308Z,57.35
2023-04-15T16:41:29.361Z,57.44
2023-04-15T16:43:58.764Z,57.44
2023-04-15T16:46:25.669Z,57.51
2023-04-15T16:48:52.480Z,57.58
2023-04-15T16:51:19.568Z,57.75
2023-04-15T16:53:46.404Z,57.87
2023-04-15T16:56:13.063Z,58.19
2023-04-15T16:58:39.776Z,58.19
2023-04-15T17:01:06.771Z,59.32
2023-04-15T17:03:33.756Z,59.54
2023-04-15T17:06:01.706Z,60.37
2023-04-15T17:08:29.325Z,61.45
2023-04-15T17:10:57.827Z,62.20
2023-04-15T17:13:26.169Z,62.73
2023-04-15T17:15:55.138Z,63.35
2023-04-15T17:18:22.433Z,64.25
2023-04-15T17:20:49.187Z,64.23
2023-04-15T17:23:15.905Z,63.43
2023-04-15T17:25:42.554Z,63.80
2023-04-15T17:28:09.310Z,64.22
2023-04-15T17:30:36.189Z,64.60
2023-04-15T17:33:03.365Z,64.50
2023-04-15T17:35:50.085Z,64.85
2023-04-15T17:38:16.790Z,64.49
2023-04-15T17:40:44.776Z,65.07
2023-04-15T17:43:11.396Z,65.56
2023-04-15T17:45:38.154Z,67.02
2023-04-15T17:48:05.381Z,68.17
2023-04-15T17:50:32.180Z,67.62
2023-04-15T17:52:59.831Z,66.67
2023-04-15T17:55:26.765Z,65.04
2023-04-15T17:57:53.497Z,64.66
2023-04-15T18:00:20.240Z,64.22
2023-04-15T18:02:49.130Z,64.63
2023-04-15T18:05:16.466Z,64.30
2023-04-15T18:07:43.384Z,64.07
2023-04-15T18:10:12.307Z,64.23
2023-04-15T18:12:39.018Z,64.34
2023-04-15T18:15:06.479Z,64.58
2023-04-15T18:17:33.163Z,64.75
2023-04-15T18:20:00.758Z,64.80
2023-04-15T18:22:28.576Z,65.26
2023-04-15T18:24:55.486Z,65.57
2023-04-15T18:27:22.887Z,65.55
2023-04-15T18:29:51.516Z,66.06
2023-04-15T18:32:18.456Z,66.46
2023-04-15T18:34:45.583Z,66.49
2023-04-15T18:37:12.537Z,67.21
2023-04-15T18:39:39.373Z,67.24
2023-04-15T18:42:06.506Z,67.68
2023-04-15T18:44:33.294Z,67.58
2023-04-15T18:47:02.036Z,67.91
2023-04-15T18:49:28.819Z,68.38
2023-04-15T18:51:55.885Z,68.42
2023-04-15T18:54:22.728Z,68.69
2023-04-15T18:56:49.614Z,68.68
2023-04-15T18:59:29.069Z,69.15
2023-04-15T19:01:57.002Z,69.56
2023-04-15T19:04:23.750Z,69.55
2023-04-15T19:06:52.183Z,70.10
2023-04-15T19:09:18.953Z,70.58
2023-04-15T19:11:45.978Z,70.69
2023-04-15T19:14:22.745Z,71.35
2023-04-15T19:16:49.539Z,71.66
2023-04-15T19:19:16.565Z,71.71
2023-04-15T19:21:43.543Z,72.06
2023-04-15T19:24:10.728Z,72.46
2023-04-15T19:26:39.808Z,72.66
2023-04-15T19:29:06.757Z,73.28
2023-04-15T19:31:33.738Z,73.13
2023-04-15T19:34:00.449Z,73.35
2023-04-15T19:36:28.657Z,73.58
2023-04-15T19:38:55.451Z,74.07
2023-04-15T19:41:22.254Z,74.29
2023-04-15T19:43:48.959Z,74.52
2023-04-15T19:46:15.908Z,74.95
2023-04-15T19:48:42.564Z,74.91
2023-04-15T19:51:09.414Z,74.93
2023-04-15T19:53:36.340Z,74.67
2023-04-15T19:56:03.312Z,75.02
2023-04-15T19:58:30.218Z,75.21
2023-04-15T20:01:01.471Z,75.40
2023-04-15T20:03:28.894Z,75.61
2023-04-15T20:05:55.795Z,76.22
2023-04-15T20:08:22.548Z,76.25
2023-04-15T20:10:49.283Z,76.35
2023-04-15T20:13:16.355Z,76.37
2023-04-15T20:15:43.474Z,76.53
2023-04-15T20:18:10.263Z,76.81
2023-04-15T20:20:39.814Z,76.92
2023-04-15T20:23:06.906Z,77.09
2023-04-15T20:25:33.548Z,76.82
2023-04-15T20:28:01.073Z,77.10
2023-04-15T20:30:29.409Z,77.26
2023-04-15T20:32:56.279Z,77.26
2023-04-15T20:35:23.188Z,77.48
2023-04-15T20:37:50.860Z,77.58
2023-04-15T20:40:17.761Z,77.94
2023-04-15T20:42:44.590Z,78.31
2023-04-15T20:45:11.599Z,78.37
2023-04-15T20:47:38.429Z,78.74
2023-04-15T20:50:05.509Z,78.89
2023-04-15T20:52:32.331Z,79.37
2023-04-15T20:54:59.046Z,79.14
2023-04-15T20:57:26.181Z,79.52
2023-04-15T20:59:52.862Z,79.21
2023-04-15T21:02:19.683Z,79.48
2023-04-15T21:04:47.315Z,79.61
2023-04-15T21:07:14.091Z,79.61
2023-04-15T21:09:41.630Z,79.53
2023-04-15T21:12:09.081Z,79.35
2023-04-15T21:14:37.100Z,79.78
2023-04-15T21:17:10.062Z,79.59
2023-04-15T21:19:38.108Z,79.48
2023-04-15T21:22:04.842Z,79.62
2023-04-15T21:24:31.705Z,79.71
2023-04-15T21:26:58.443Z,79.71
2023-04-15T21:29:26.095Z,79.83
2023-04-15T21:31:58.951Z,80.26
2023-04-15T21:34:25.838Z,80.14
2023-04-15T21:36:52.629Z,80.32
2023-04-15T21:39:19.300Z,80.57
2023-04-15T21:41:46.479Z,81.11
2023-04-15T21:44:14.590Z,81.08
2023-04-15T21:46:41.801Z,80.96
2023-04-15T21:49:12.486Z,81.42
2023-04-15T21:51:39.263Z,81.74
2023-04-15T21:54:06.135Z,81.30
2023-04-15T21:56:32.987Z,81.41
2023-04-15T21:58:59.829Z,81.36
2023-04-15T22:08:54.899Z,80.71
2023-04-15T22:11:27.449Z,80.51
2023-04-15T22:13:55.089Z,80.79
2023-04-15T22:16:21.911Z,80.97
2023-04-15T22:18:49.101Z,80.85
2023-04-15T22:21:15.989Z,80.88
2023-04-15T22:23:47.171Z,80.58
2023-04-15T22:26:13.874Z,80.37
2023-04-15T22:28:41.062Z,80.57
2023-04-15T22:31:07.907Z,80.84
2023-04-15T22:33:34.736Z,80.74
2023-04-15T22:36:01.553Z,80.69
2023-04-15T22:38:28.303Z,80.71
2023-04-15T22:40:55.231Z,81.00
2023-04-15T22:43:22.291Z,80.82
2023-04-15T22:45:53.264Z,81.00
2023-04-15T22:48:20.194Z,80.83
2023-04-15T22:50:47.123Z,80.80
2023-04-15T22:53:15.822Z,80.61
2023-04-15T22:55:47.326Z,80.68
2023-04-15T22:58:14.963Z,80.58
2023-04-15T23:00:41.961Z,80.41
2023-04-15T23:03:08.948Z,80.60
2023-04-15T23:05:35.983Z,80.66
2023-04-15T23:08:03.436Z,80.83
2023-04-15T23:10:30.175Z,80.80
2023-04-15T23:12:56.994Z,80.80
2023-04-15T23:15:24.154Z,80.73
2023-04-15T23:17:51.051Z,80.45
2023-04-15T23:20:17.908Z,80.68
2023-04-15T23:22:45.662Z,80.81
2023-04-15T23:25:12.417Z,80.84
2023-04-15T23:27:40.187Z,80.88
2023-04-15T23:30:07.801Z,80.81
2023-04-15T23:32:36.591Z,81.03
2023-04-15T23:35:03.530Z,81.07
2023-04-15T23:37:31.866Z,81.08
2023-04-15T23:39:58.748Z,81.18
2023-04-15T23:42:26.065Z,81.23
2023-04-15T23:44:53.054Z,81.22
2023-04-15T23:47:42.934Z,81.23
2023-04-15T23:50:10.522Z,81.43
2023-04-15T23:52:37.372Z,81.36
2023-04-15T23:55:04.738Z,81.17
2023-04-15T23:57:31.461Z,81.30
2023-04-15T23:59:58.276Z,81.26
